createdAt,value
2023-04-18T00:02:17.487Z,10.49
2023-04-18T00:04:46.401Z,10.36
2023-04-18T00:07:17.662Z,10.42
2023-04-18T00:09:45.523Z,10.28
2023-04-18T00:12:12.976Z,10.43
2023-04-18T00:14:41.007Z,10.31
2023-04-18T00:17:09.100Z,10.31
2023-04-18T00:19:37.672Z,10.40
2023-04-18T00:22:05.088Z,10.49
2023-04-18T00:24:32.656Z,10.46
2023-04-18T00:27:00.068Z,10.44
2023-04-18T00:29:27.469Z,10.51
2023-04-18T00:31:54.932Z,10.52
2023-04-18T00:34:22.332Z,10.30
2023-04-18T00:36:49.742Z,10.45
2023-04-18T00:39:17.095Z,10.35
2023-04-18T00:41:44.520Z,10.27
2023-04-18T00:44:12.096Z,10.20
2023-04-18T00:46:39.659Z,10.33
2023-04-18T00:49:07.436Z,10.17
2023-04-18T00:51:35.814Z,10.04
2023-04-18T00:54:04.723Z,10.18
2023-04-18T00:56:32.093Z,10.28
2023-04-18T00:58:59.611Z,10.03
2023-04-18T01:01:27.016Z,10.07
2023-04-18T01:03:54.518Z,10.11
2023-04-18T01:06:22.781Z,9.90
2023-04-18T01:08:50.295Z,9.85
2023-04-18T01:11:17.712Z,9.79
2023-04-18T01:13:58.827Z,9.82
2023-04-18T01:16:27.150Z,9.34
2023-04-18T01:18:54.650Z,9.36
2023-04-18T01:21:22.496Z,9.51
2023-04-18T01:23:49.947Z,9.48
2023-04-18T01:26:17.479Z,9.41
2023-04-18T01:28:44.851Z,9.47
2023-04-18T01:31:12.263Z,9.68
2023-04-18T01:33:39.710Z,9.26
2023-04-18T01:36:07.253Z,9.28
2023-04-18T01:38:34.708Z,9.33
2023-04-18T01:41:02.268Z,9.19
2023-04-18T01:43:29.606Z,9.14
2023-04-18T01:45:57.057Z,9.06
2023-04-18T01:48:24.478Z,8.90
2023-04-18T01:50:51.827Z,8.81
2023-04-18T01:53:19.196Z,8.99
2023-04-18T01:55:46.549Z,9.06
2023-04-18T01:58:15.428Z,8.68
2023-04-18T02:00:43.001Z,8.81
2023-04-18T02:03:10.765Z,8.72
2023-04-18T02:05:38.333Z,8.96
2023-04-18T02:08:05.773Z,8.85
2023-04-18T02:10:33.147Z,8.59
2023-04-18T02:13:00.531Z,8.69
2023-04-18T02:15:27.930Z,8.69
2023-04-18T02:17:55.671Z,8.69
2023-04-18T02:20:23.162Z,8.37
2023-04-18T02:22:50.561Z,8.49
2023-04-18T02:25:18.526Z,8.49
2023-04-18T02:27:45.951Z,8.44
2023-04-18T02:30:13.461Z,8.42
2023-04-18T02:32:40.887Z,8.44
2023-04-18T02:35:08.494Z,8.50
2023-04-18T02:37:35.898Z,8.53
2023-04-18T02:40:04.010Z,8.48
2023-04-18T02:42:31.774Z,8.40
2023-04-18T02:44:59.195Z,8.52
2023-04-18T02:47:26.609Z,8.43
2023-04-18T02:49:54.042Z,8.34
2023-04-18T02:52:21.457Z,8.44
2023-04-18T02:54:48.899Z,8.51
2023-04-18T02:57:16.313Z,8.34
2023-04-18T02:59:43.689Z,8.54
2023-04-18T03:02:11.112Z,8.52
2023-04-18T03:04:38.665Z,8.30
2023-04-18T03:07:06.132Z,8.35
2023-04-18T03:09:33.520Z,8.53
2023-04-18T03:12:02.141Z,8.36
2023-04-18T03:14:29.580Z,8.32
2023-04-18T03:16:57.001Z,8.39
2023-04-18T03:19:24.496Z,8.36
2023-04-18T03:21:51.849Z,8.37
2023-04-18T03:24:19.230Z,8.26
2023-04-18T03:26:46.965Z,8.26
2023-04-18T03:29:14.384Z,8.37
2023-04-18T03:31:41.865Z,8.27
2023-04-18T03:34:09.314Z,7.90
2023-04-18T03:36:36.808Z,8.11
2023-04-18T03:39:04.372Z,8.28
2023-04-18T03:41:31.816Z,8.13
2023-04-18T03:43:59.167Z,7.97
2023-04-18T03:46:26.853Z,8.38
2023-04-18T03:48:54.274Z,8.23
2023-04-18T03:51:21.622Z,8.11
2023-04-18T03:53:49.021Z,7.82
2023-04-18T03:56:16.400Z,8.07
2023-04-18T03:58:43.879Z,7.82
2023-04-18T04:01:12.866Z,8.11
2023-04-18T04:03:40.480Z,8.16
2023-04-18T04:06:08.125Z,7.79
2023-04-18T04:08:35.506Z,8.00
2023-04-18T04:11:02.962Z,7.95
2023-04-18T04:13:30.412Z,7.95
2023-04-18T04:15:57.975Z,7.80
2023-04-18T04:18:31.012Z,7.78
2023-04-18T04:20:58.981Z,8.00
2023-04-18T04:23:26.824Z,8.03
2023-04-18T04:25:54.747Z,7.96
2023-04-18T04:28:22.713Z,7.77
2023-04-18T04:30:53.851Z,7.98
2023-04-18T04:33:21.773Z,8.00
2023-04-18T04:35:49.818Z,8.05
2023-04-18T04:38:19.971Z,7.87
2023-04-18T04:40:47.414Z,7.99
2023-04-18T04:43:15.616Z,8.04
2023-04-18T04:45:44.633Z,8.23
2023-04-18T04:48:12.130Z,8.18
2023-04-18T04:50:39.952Z,8.16
2023-04-18T04:53:07.369Z,7.88
2023-04-18T04:55:35.333Z,8.29
2023-04-18T04:58:02.739Z,8.06
2023-04-18T05:00:30.220Z,7.95
2023-04-18T05:02:58.355Z,8.32
2023-04-18T05:05:25.858Z,8.10
2023-04-18T05:07:53.304Z,8.20
2023-04-18T05:10:21.071Z,8.30
2023-04-18T05:12:48.533Z,8.24
2023-04-18T05:15:16.910Z,8.11
2023-04-18T05:17:44.352Z,7.97
2023-04-18T05:20:11.981Z,8.24
2023-04-18T05:22:39.352Z,8.45
2023-04-18T05:25:07.021Z,8.53
2023-04-18T05:27:34.427Z,8.72
2023-04-18T05:30:01.910Z,8.30
2023-04-18T05:32:29.272Z,8.60
2023-04-18T05:34:57.174Z,8.36
2023-04-18T05:37:24.573Z,8.33
2023-04-18T05:39:52.028Z,8.54
2023-04-18T05:42:19.455Z,8.35
2023-04-18T05:44:46.797Z,8.41
2023-04-18T05:47:14.204Z,8.38
2023-04-18T05:49:41.617Z,8.33
2023-04-18T05:52:09.075Z,8.51
2023-04-18T05:54:36.487Z,8.71
2023-04-18T05:57:04.767Z,8.55
2023-04-18T05:59:32.397Z,8.96
2023-04-18T06:01:59.911Z,8.52
2023-04-18T06:04:27.673Z,8.90
2023-04-18T06:06:55.291Z,8.47
2023-04-18T06:09:22.669Z,8.58
2023-04-18T06:11:50.109Z,8.74
2023-04-18T06:14:17.549Z,8.99
2023-04-18T06:16:44.966Z,8.89
2023-04-18T06:19:12.396Z,8.63
2023-04-18T06:21:41.995Z,8.91
2023-04-18T06:24:09.725Z,8.81
2023-04-18T06:26:37.196Z,8.78
2023-04-18T06:29:04.624Z,9.00
2023-04-18T06:31:32.091Z,8.85
2023-04-18T06:33:59.550Z,9.18
2023-04-18T06:36:27.391Z,8.53
2023-04-18T06:38:54.966Z,8.98
2023-04-18T06:41:22.731Z,9.06
2023-04-18T06:44:02.768Z,9.15
2023-04-18T06:46:31.930Z,9.02
2023-04-18T06:48:59.415Z,9.07
2023-04-18T06:51:27.286Z,9.49
2023-04-18T06:53:54.616Z,9.07
2023-04-18T06:56:22.444Z,9.73
2023-04-18T06:58:52.797Z,9.21
2023-04-18T07:01:20.772Z,9.60
2023-04-18T07:03:48.325Z,9.28
2023-04-18T07:06:16.105Z,9.51
2023-04-18T07:08:43.814Z,9.64
2023-04-18T07:11:13.218Z,10.15
2023-04-18T07:13:40.657Z,10.10
2023-04-18T07:16:08.227Z,10.29
2023-04-18T07:18:38.386Z,10.01
2023-04-18T07:21:07.828Z,9.88
2023-04-18T07:23:35.535Z,10.30
2023-04-18T07:26:03.251Z,10.07
2023-04-18T07:28:32.124Z,9.93
2023-04-18T07:30:59.823Z,9.76
2023-04-18T07:33:27.986Z,9.98
2023-04-18T07:35:55.797Z,9.78
2023-04-18T07:38:23.226Z,10.20
2023-04-18T07:40:57.576Z,10.33
2023-04-18T07:43:25.063Z,10.10
2023-04-18T07:45:53.137Z,10.00
2023-04-18T07:48:22.136Z,10.07
2023-04-18T07:50:50.186Z,10.14
2023-04-18T07:53:17.665Z,10.41
2023-04-18T07:55:46.601Z,10.65
2023-04-18T07:58:14.113Z,10.35
2023-04-18T08:00:42.977Z,10.55
2023-04-18T08:03:12.268Z,11.21
2023-04-18T08:05:40.719Z,11.14
2023-04-18T08:08:08.895Z,11.24
2023-04-18T08:10:36.815Z,11.14
2023-04-18T08:13:04.679Z,11.47
2023-04-18T08:15:32.856Z,11.17
2023-04-18T08:18:00.648Z,11.89
2023-04-18T08:20:28.558Z,11.12
2023-04-18T08:25:28.348Z,11.66
2023-04-18T08:27:56.614Z,11.66
2023-04-18T08:30:24.457Z,11.92
2023-04-18T08:32:52.425Z,11.85
2023-04-18T08:35:20.238Z,11.72
2023-04-18T08:37:47.668Z,11.88
2023-04-18T08:40:15.136Z,12.39
2023-04-18T08:42:44.099Z,12.49
2023-04-18T08:45:13.724Z,12.55
2023-04-18T08:47:44.013Z,12.68
2023-04-18T08:50:12.707Z,12.55
2023-04-18T08:52:41.267Z,12.62
2023-04-18T08:55:09.434Z,12.64
2023-04-18T08:57:36.833Z,12.90
2023-04-18T09:00:09.949Z,13.13
2023-04-18T09:02:42.498Z,13.50
2023-04-18T09:05:20.032Z,13.03
2023-04-18T09:07:51.446Z,13.61
2023-04-18T09:10:32.864Z,12.70
2023-04-18T09:13:03.183Z,12.61
2023-04-18T09:15:31.046Z,12.86
2023-04-18T09:18:00.065Z,12.85
2023-04-18T09:20:42.040Z,13.01
2023-04-18T09:23:11.494Z,13.33
2023-04-18T09:25:45.260Z,13.43
2023-04-18T09:28:23.529Z,14.01
2023-04-18T09:30:52.376Z,14.49
2023-04-18T09:33:28.215Z,14.00
2023-04-18T09:35:56.244Z,14.31
2023-04-18T09:38:39.607Z,13.60
2023-04-18T09:41:10.778Z,14.17
2023-04-18T09:43:38.296Z,13.47
2023-04-18T09:46:06.155Z,13.17
2023-04-18T09:48:33.592Z,12.94
2023-04-18T09:51:05.751Z,13.62
2023-04-18T09:53:34.056Z,14.49
2023-04-18T09:56:01.844Z,13.59
2023-04-18T09:58:33.309Z,14.15
2023-04-18T10:01:01.473Z,13.41
2023-04-18T10:03:34.532Z,13.70
2023-04-18T10:06:02.183Z,14.14
2023-04-18T10:08:29.663Z,14.20
2023-04-18T10:10:58.670Z,14.30
2023-04-18T10:13:27.471Z,13.58
2023-04-18T10:15:55.878Z,13.65
2023-04-18T10:18:24.286Z,14.24
2023-04-18T10:20:51.790Z,13.36
2023-04-18T10:23:38.875Z,13.59
2023-04-18T10:26:10.015Z,13.71
2023-04-18T10:28:57.823Z,13.37
2023-04-18T10:31:26.876Z,14.17
2023-04-18T10:34:04.711Z,14.42
2023-04-18T10:36:33.324Z,13.56
2023-04-18T10:39:20.727Z,13.33
2023-04-18T10:41:51.658Z,13.59
2023-04-18T10:44:20.591Z,13.38
2023-04-18T10:46:53.809Z,13.21
2023-04-18T10:49:24.475Z,13.24
2023-04-18T10:51:56.096Z,13.69
2023-04-18T10:54:30.846Z,14.00
2023-04-18T10:56:59.356Z,13.54
2023-04-18T10:59:27.419Z,13.25
2023-04-18T11:01:59.871Z,13.17
2023-04-18T11:04:27.428Z,13.46
2023-04-18T11:06:57.312Z,13.42
2023-04-18T11:09:25.552Z,13.47
2023-04-18T11:12:12.230Z,14.28
2023-04-18T11:14:47.517Z,14.09
2023-04-18T11:17:25.509Z,14.30
2023-04-18T11:20:00.896Z,14.28
2023-04-18T11:22:28.457Z,15.20
2023-04-18T11:25:02.116Z,14.21
2023-04-18T11:27:30.350Z,14.36
2023-04-18T11:29:58.191Z,14.71
2023-04-18T11:32:25.742Z,14.35
2023-04-18T11:34:54.477Z,14.14
2023-04-18T11:37:22.384Z,14.00
2023-04-18T11:39:49.859Z,13.91
2023-04-18T11:42:17.235Z,13.88
2023-04-18T11:44:46.589Z,14.14
2023-04-18T11:47:23.798Z,14.36
2023-04-18T11:49:57.299Z,14.68
2023-04-18T11:52:25.166Z,14.66
2023-04-18T11:54:52.535Z,15.42
2023-04-18T11:57:21.652Z,15.31
2023-04-18T11:59:52.829Z,15.64
2023-04-18T12:02:21.054Z,14.74
2023-04-18T12:04:52.975Z,14.63
2023-04-18T12:07:36.117Z,13.84
2023-04-18T12:10:05.329Z,14.62
2023-04-18T12:12:32.915Z,14.39
2023-04-18T12:15:05.027Z,14.50
2023-04-18T12:17:32.489Z,14.48
2023-04-18T12:20:03.985Z,14.25
2023-04-18T12:22:38.543Z,15.22
2023-04-18T12:25:27.367Z,15.15
2023-04-18T12:28:03.543Z,14.90
2023-04-18T12:30:31.079Z,14.32
2023-04-18T12:33:00.020Z,14.40
2023-04-18T12:35:27.805Z,14.64
2023-04-18T12:37:56.350Z,15.38
2023-04-18T12:40:26.191Z,15.06
2023-04-18T12:42:54.152Z,14.79
2023-04-18T12:45:22.500Z,14.43
2023-04-18T12:47:51.228Z,14.80
2023-04-18T12:50:22.711Z,14.65
2023-04-18T12:52:50.366Z,14.95
2023-04-18T12:55:17.766Z,15.29
2023-04-18T12:57:45.206Z,15.19
2023-04-18T13:00:13.689Z,15.22
2023-04-18T13:02:43.928Z,15.08
2023-04-18T13:05:13.095Z,15.10
2023-04-18T13:07:42.707Z,14.63
2023-04-18T13:10:20.424Z,15.23
2023-04-18T13:12:48.128Z,15.39
2023-04-18T13:15:15.888Z,16.07
2023-04-18T13:17:43.371Z,15.59
2023-04-18T13:20:12.459Z,15.55
2023-04-18T13:22:41.018Z,15.44
2023-04-18T13:25:10.441Z,15.38
2023-04-18T13:27:41.307Z,15.65
2023-04-18T13:30:10.026Z,15.39
2023-04-18T13:32:39.167Z,16.00
2023-04-18T13:35:09.019Z,15.67
2023-04-18T13:37:36.659Z,15.47
2023-04-18T13:40:05.501Z,15.71
2023-04-18T13:42:33.495Z,15.23
2023-04-18T13:45:00.962Z,15.75
2023-04-18T13:47:28.533Z,15.62
2023-04-18T13:49:56.149Z,15.76
2023-04-18T13:52:23.535Z,14.75
2023-04-18T13:54:51.003Z,14.55
2023-04-18T13:57:18.447Z,15.01
2023-04-18T13:59:45.817Z,15.04
2023-04-18T14:02:13.296Z,15.26
2023-04-18T14:04:40.934Z,15.41
2023-04-18T14:07:09.044Z,15.19
2023-04-18T14:09:36.509Z,15.86
2023-04-18T14:12:04.004Z,15.29
2023-04-18T14:14:31.532Z,15.82
2023-04-18T14:16:58.934Z,15.53
2023-04-18T14:19:27.649Z,15.70
2023-04-18T14:21:55.085Z,15.86
2023-04-18T14:24:22.530Z,15.97
2023-04-18T14:26:49.948Z,15.81
2023-04-18T14:29:17.441Z,16.35
2023-04-18T14:31:44.996Z,16.41
2023-04-18T14:34:12.515Z,15.86
2023-04-18T14:36:40.178Z,15.80
2023-04-18T14:39:08.388Z,16.10
2023-04-18T14:41:35.869Z,15.92
2023-04-18T14:44:03.984Z,15.60
2023-04-18T14:46:31.517Z,16.33
2023-04-18T14:48:58.961Z,16.73
2023-04-18T14:51:26.431Z,16.34
2023-04-18T14:53:53.911Z,15.77
2023-04-18T14:56:23.582Z,15.61
2023-04-18T14:58:51.135Z,15.94
2023-04-18T15:01:18.648Z,16.24
2023-04-18T15:03:46.438Z,16.12
2023-04-18T15:06:13.950Z,16.49
2023-04-18T15:08:41.594Z,16.15
2023-04-18T15:11:09.025Z,15.85
2023-04-18T15:13:36.636Z,16.88
2023-04-18T15:16:04.419Z,16.74
2023-04-18T15:18:31.875Z,16.28
2023-04-18T15:21:02.202Z,16.11
2023-04-18T15:23:29.650Z,15.61
2023-04-18T15:25:57.081Z,16.54
2023-04-18T15:28:24.523Z,15.71
2023-04-18T15:30:52.018Z,15.94
2023-04-18T15:33:20.410Z,16.07
2023-04-18T15:35:50.632Z,15.98
2023-04-18T15:38:17.988Z,16.05
2023-04-18T15:40:45.461Z,16.35
2023-04-18T15:43:13.729Z,16.57
2023-04-18T15:45:41.202Z,16.80
2023-04-18T15:48:09.992Z,17.10
2023-04-18T15:50:37.647Z,16.39
2023-04-18T15:53:04.987Z,16.16
2023-04-18T15:55:32.404Z,16.45
2023-04-18T15:58:00.012Z,15.90
2023-04-18T16:00:27.474Z,16.26
2023-04-18T16:02:55.039Z,16.13
2023-04-18T16:05:22.602Z,16.39
2023-04-18T16:07:50.019Z,15.78
2023-04-18T16:10:17.504Z,15.98
2023-04-18T16:12:45.053Z,15.67
2023-04-18T16:15:12.771Z,15.71
2023-04-18T16:17:40.282Z,16.12
2023-04-18T16:20:08.967Z,16.59
2023-04-18T16:22:36.721Z,16.46
2023-04-18T16:25:04.981Z,16.30
2023-04-18T16:27:32.514Z,16.33
2023-04-18T16:29:59.915Z,16.29
2023-04-18T16:32:27.495Z,15.93
2023-04-18T16:34:55.065Z,16.32
2023-04-18T16:37:22.554Z,16.13
2023-04-18T16:39:50.012Z,16.44
2023-04-18T16:42:17.465Z,16.15
2023-04-18T16:44:45.839Z,15.96
2023-04-18T16:47:13.244Z,16.44
2023-04-18T16:49:41.135Z,16.60
2023-04-18T16:52:08.544Z,16.13
2023-04-18T16:54:36.030Z,16.06
2023-04-18T16:57:03.411Z,16.28
2023-04-18T16:59:30.879Z,16.27
2023-04-18T17:01:58.332Z,16.08
2023-04-18T17:04:26.927Z,15.87
2023-04-18T17:06:54.626Z,16.12
2023-04-18T17:09:22.030Z,16.05
2023-04-18T17:11:49.850Z,16.10
2023-04-18T17:14:18.299Z,15.70
2023-04-18T17:16:46.086Z,15.56
2023-04-18T17:19:13.940Z,15.88
2023-04-18T17:21:41.652Z,16.09
2023-04-18T17:24:09.251Z,16.21
2023-04-18T17:26:37.939Z,16.57
2023-04-18T17:29:05.539Z,16.35
2023-04-18T17:31:33.320Z,16.09
2023-04-18T17:34:01.256Z,16.11
2023-04-18T17:36:28.658Z,15.94
2023-04-18T17:38:56.355Z,16.00
2023-04-18T17:41:23.787Z,16.17
2023-04-18T17:43:51.768Z,16.31
2023-04-18T17:46:19.176Z,16.27
2023-04-18T17:48:47.032Z,15.72
2023-04-18T17:51:16.210Z,15.65
2023-04-18T17:53:43.622Z,15.74
2023-04-18T17:56:11.318Z,15.70
2023-04-18T17:58:38.729Z,15.78
2023-04-18T18:01:14.947Z,15.94
2023-04-18T18:03:42.673Z,15.54
2023-04-18T18:06:12.619Z,15.74
2023-04-18T18:08:40.027Z,15.85
2023-04-18T18:11:07.388Z,15.73
2023-04-18T18:13:35.327Z,15.56
2023-04-18T18:16:03.180Z,15.62
2023-04-18T18:18:31.427Z,15.82
2023-04-18T18:20:59.107Z,15.58
2023-04-18T18:23:26.531Z,15.61
2023-04-18T18:25:53.986Z,15.39
2023-04-18T18:28:21.458Z,15.46
2023-04-18T18:30:48.849Z,15.17
2023-04-18T18:33:16.319Z,15.45
2023-04-18T18:35:43.743Z,15.56
2023-04-18T18:38:11.350Z,15.21
2023-04-18T18:40:38.963Z,15.34
2023-04-18T18:43:06.406Z,15.26
2023-04-18T18:45:36.324Z,14.93
2023-04-18T18:48:04.491Z,15.06
2023-04-18T18:50:31.868Z,14.96
2023-04-18T18:53:01.734Z,14.91
2023-04-18T18:55:29.596Z,14.83
2023-04-18T18:57:57.099Z,14.78
2023-04-18T19:00:24.828Z,14.73
2023-04-18T19:02:52.585Z,14.77
2023-04-18T19:05:21.131Z,14.79
2023-04-18T19:07:49.109Z,14.79
2023-04-18T19:10:16.510Z,14.69
2023-04-18T19:12:44.008Z,14.75
2023-04-18T19:15:11.703Z,14.62
2023-04-18T19:17:39.158Z,14.70
2023-04-18T19:20:06.888Z,14.51
2023-04-18T19:22:34.326Z,14.42
2023-04-18T19:25:01.755Z,14.33
2023-04-18T19:27:29.271Z,14.12
2023-04-18T19:29:56.683Z,14.31
2023-04-18T19:32:24.084Z,14.23
2023-04-18T19:34:51.993Z,14.29
2023-04-18T19:37:19.390Z,14.36
2023-04-18T19:39:46.789Z,14.15
2023-04-18T19:42:14.216Z,14.10
2023-04-18T19:44:41.750Z,13.96
2023-04-18T19:47:09.157Z,13.85
2023-04-18T19:49:36.520Z,13.89
2023-04-18T19:52:04.078Z,13.79
2023-04-18T19:54:34.536Z,13.88
2023-04-18T19:57:02.710Z,13.75
2023-04-18T19:59:30.067Z,13.76
2023-04-18T20:02:00.541Z,13.95
2023-04-18T20:04:31.447Z,13.87
2023-04-18T20:06:59.103Z,14.04
2023-04-18T20:09:26.819Z,14.11
2023-04-18T20:11:54.283Z,14.03
2023-04-18T20:14:21.841Z,13.69
2023-04-18T20:16:49.949Z,13.41
2023-04-18T20:19:17.798Z,13.68
2023-04-18T20:21:45.354Z,13.48
2023-04-18T20:24:13.589Z,13.40
2023-04-18T20:26:40.942Z,13.38
2023-04-18T20:29:08.450Z,13.26
2023-04-18T20:31:37.643Z,13.22
2023-04-18T20:34:05.154Z,13.41
2023-04-18T20:36:34.308Z,13.35
2023-04-18T20:39:02.524Z,13.10
2023-04-18T20:41:31.029Z,13.09
2023-04-18T20:43:59.919Z,12.99
2023-04-18T20:46:27.388Z,13.15
2023-04-18T20:48:54.796Z,13.03
2023-04-18T20:51:22.160Z,13.14
2023-04-18T20:53:49.590Z,13.11
2023-04-18T20:56:16.992Z,12.65
2023-04-18T20:58:44.428Z,12.89
2023-04-18T21:01:12.074Z,13.08
2023-04-18T21:03:39.674Z,12.96
2023-04-18T21:06:07.162Z,13.03
2023-04-18T21:08:37.767Z,12.90
2023-04-18T21:11:05.144Z,13.15
2023-04-18T21:13:32.990Z,13.07
2023-04-18T21:16:02.419Z,12.57
2023-04-18T21:18:30.329Z,12.87
2023-04-18T21:20:57.754Z,12.76
2023-04-18T21:23:25.201Z,12.58
2023-04-18T21:25:52.619Z,12.78
2023-04-18T21:28:20.417Z,12.76
2023-04-18T21:30:47.957Z,12.70
2023-04-18T21:33:15.723Z,12.78
2023-04-18T21:35:43.219Z,12.66
2023-04-18T21:38:10.741Z,12.65
2023-04-18T21:40:38.465Z,12.69
2023-04-18T21:43:05.853Z,12.76
2023-04-18T21:45:33.731Z,12.37
2023-04-18T21:48:01.322Z,12.75
2023-04-18T21:50:28.778Z,12.67
2023-04-18T21:52:56.211Z,12.41
2023-04-18T21:55:23.701Z,12.39
2023-04-18T21:57:51.069Z,12.40
2023-04-18T22:00:19.030Z,12.52
2023-04-18T22:02:47.068Z,12.74
2023-04-18T22:05:16.193Z,12.35
2023-04-18T22:07:56.982Z,12.58
2023-04-18T22:10:25.790Z,12.58
2023-04-18T22:12:54.095Z,12.62
2023-04-18T22:15:21.585Z,12.56
2023-04-18T22:17:51.985Z,12.42
2023-04-18T22:20:19.563Z,12.55
2023-04-18T22:22:46.991Z,12.49
2023-04-18T22:25:14.398Z,12.27
2023-04-18T22:27:42.581Z,12.18
2023-04-18T22:30:10.322Z,12.23
2023-04-18T22:32:37.948Z,12.35
2023-04-18T22:35:05.597Z,12.41
2023-04-18T22:37:33.160Z,12.40
2023-04-18T22:40:00.596Z,12.59
2023-04-18T22:42:29.738Z,12.34
2023-04-18T22:44:57.413Z,12.14
2023-04-18T22:47:24.858Z,12.30
2023-04-18T22:49:52.276Z,12.39
2023-04-18T22:52:20.276Z,12.16
2023-04-18T22:54:47.691Z,12.26
2023-04-18T22:57:15.221Z,12.23
2023-04-18T22:59:42.782Z,12.01
2023-04-18T23:02:11.224Z,12.17
2023-04-18T23:04:39.966Z,11.82
2023-04-18T23:07:07.465Z,11.86
2023-04-18T23:09:34.866Z,12.04
2023-04-18T23:12:02.396Z,12.00
2023-04-18T23:14:30.129Z,12.03
2023-04-18T23:16:57.531Z,12.12
2023-04-18T23:19:24.918Z,12.05
2023-04-18T23:21:52.270Z,12.14
2023-04-18T23:24:19.647Z,11.94
2023-04-18T23:26:47.209Z,11.63
2023-04-18T23:29:14.570Z,11.54
2023-04-18T23:31:41.946Z,11.60
2023-04-18T23:34:10.855Z,11.89
2023-04-18T23:36:40.404Z,11.84
2023-04-18T23:39:08.602Z,11.92
2023-04-18T23:41:36.022Z,11.78
2023-04-18T23:44:03.471Z,11.79
2023-04-18T23:46:31.006Z,11.53
2023-04-18T23:48:58.401Z,11.50
2023-04-18T23:51:26.141Z,11.73
2023-04-18T23:53:53.589Z,11.59
2023-04-18T23:56:21.708Z,11.64
2023-04-18T23:58:49.048Z,11.81
